Погода Флорианона 2 недели

Пиауи, Бразилия

21 июля-03 августа
  • 21июля
    Сегодня
    +23°
    +34°
    Небольшая облачность
    ВремяПогодаТемператураВлажностьДавлениеВетер, м/сВероятность осадков
    00:00Ясно и безоблачно+26°C41 %752 мм3.7 м/с5 %
    03:00Ясно и безоблачно+24°C51 %752 мм3.6 м/с5 %
    06:00Ясно и безоблачно+23°C60 %752 мм3.3 м/с5 %
    09:00Ясно и безоблачно+27°C41 %753 мм3.8 м/с5 %
    12:00Ясно и безоблачно+32°C26 %752 мм4.5 м/с5 %
    15:00Небольшая облачность+33°C26 %750 мм3.6 м/с5 %
    18:00Облачно с прояснениями+30°C29 %750 мм2.0 м/с5 %
    21:00Облачно с прояснениями+27°C35 %752 мм3.0 м/с5 %
  • 22июля
    Понедельник
    +23°
    +34°
    Облачно с прояснениями
    ВремяПогодаТемператураВлажностьДавлениеВетер, м/сВероятность осадков
    00:00Облачно с прояснениями+25°C41 %752 мм3.1 м/с5 %
    03:00Облачно с прояснениями+24°C48 %751 мм3.6 м/с5 %
    06:00Небольшая облачность+23°C54 %752 мм4.6 м/с5 %
    09:00Небольшая облачность+27°C43 %754 мм3.9 м/с5 %
    12:00Облачно с прояснениями+32°C30 %753 мм5.4 м/с5 %
    15:00Облачно с прояснениями+34°C25 %750 мм3.5 м/с5 %
    18:00Облачно с прояснениями+30°C30 %751 мм1.9 м/с5 %
    21:00Практически безоблачно+28°C33 %752 мм2.8 м/с5 %
  • 23июля
    Вторник
    +24°
    +35°
    Ясно и безоблачно
    ВремяПогодаТемператураВлажностьДавлениеВетер, м/сВероятность осадков
    00:00Ясно и безоблачно+25°C39 %752 мм2.9 м/с5 %
    03:00Ясно и безоблачно+25°C42 %752 мм4.4 м/с5 %
    06:00Ясно и безоблачно+24°C56 %753 мм4.6 м/с5 %
    09:00Ясно и безоблачно+27°C52 %754 мм3.8 м/с5 %
    12:00Ясно и безоблачно+33°C34 %752 мм4.9 м/с5 %
    15:00Ясно и безоблачно+34°C29 %750 мм4.0 м/с5 %
    18:00Ясно и безоблачно+32°C32 %751 мм2.4 м/с5 %
    21:00Ясно и безоблачно+29°C37 %752 мм2.7 м/с5 %
  • 24июля
    Среда
    +23°
    +35°
    Ясно и безоблачно
    ВремяПогодаТемператураВлажностьДавлениеВетер, м/сВероятность осадков
    00:00Ясно и безоблачно+27°C43 %753 мм3.1 м/с5 %
    03:00Ясно и безоблачно+26°C47 %752 мм4.0 м/с5 %
    06:00Ясно и безоблачно+24°C60 %753 мм4.0 м/с5 %
    09:00Ясно и безоблачно+27°C55 %754 мм3.7 м/с5 %
    12:00Ясно и безоблачно+32°C37 %753 мм4.8 м/с5 %
    15:00Ясно и безоблачно+35°C31 %751 мм3.6 м/с5 %
    18:00Ясно и безоблачно+32°C34 %751 мм2.5 м/с5 %
    21:00Ясно и безоблачно+30°C37 %753 мм4.2 м/с5 %
  • 25июля
    Четверг
    +23°
    +35°
    Ясно и безоблачно
    ВремяПогодаТемператураВлажностьДавлениеВетер, м/сВероятность осадков
    00:00Ясно и безоблачно+28°C42 %753 мм4.7 м/с5 %
    03:00Ясно и безоблачно+26°C47 %752 мм4.6 м/с5 %
    06:00Ясно и безоблачно+24°C62 %753 мм4.5 м/с5 %
    09:00Ясно и безоблачно+28°C51 %754 мм4.0 м/с5 %
    12:00Ясно и безоблачно+33°C33 %753 мм5.0 м/с5 %
    15:00Ясно и безоблачно+35°C28 %750 мм4.3 м/с5 %
    18:00Ясно и безоблачно+32°C31 %750 мм2.4 м/с5 %
    21:00Ясно и безоблачно+29°C36 %751 мм3.5 м/с5 %
Мы используем cookies
Соглашаюсь